Capt. Reggie Leboeuf — WDC2585 — position and weather

sailwx.info

Track history (hours):
 
Tides and Currents Weather Stations Pressure Air Temp Water Temp Dewpoint Dewpoint Depression Visibility Wind Speed Wind Dir Waves Ship Positions

Capt. Reggie Leboeuf

Owner: Kirby Inland Marine LP, Houston, TX. More information available from US FCC via Universal Licensing System and Coast Guard Vessel Documentation Center.

Last reported at 2017-Nov-11 09:07 UTC. Time now 2017-Nov-22 16:40 UTC.
Position N 29°51' W 091°56'.
Warning: this ship's position is 11 days out of date.

Length 207 m; draft 3 m.

Type: . MMSI: 366995280.

Date/timePositionNaut miles runAvg speedWind from/ knotsBaromVisibWave heightAir tempDewpointWater temp
2017-Nov-11 09:07N 29°51' W 091°56'1 5.1
2017-Nov-11 08:55N 29°50' W 091°57'2 5.2
2017-Nov-11 08:29N 29°50' W 091°60'3 5.2
2017-Nov-11 07:59N 29°49' W 092°02'4 5.6
2017-Nov-11 07:19N 29°48' W 092°06'2 5.7
2017-Nov-11 06:59N 29°47' W 092°09'3 4.7
2017-Nov-11 06:25N 29°47' W 092°12'1 1.9
2017-Nov-11 05:55N 29°47' W 092°13'1 2.6
2017-Nov-11 05:27N 29°48' W 092°14'1 2.7
2017-Nov-11 05:00N 29°48' W 092°15'2 3.8
2017-Nov-11 04:29N 29°49' W 092°17'2 3.7
2017-Nov-11 03:59N 29°50' W 092°19'2 4.8
2017-Nov-11 03:29N 29°51' W 092°22'47 4.3
2017-Nov-10 16:30N 30°02' W 093°14'2 3.9
2017-Nov-10 16:00N 30°03' W 093°16'2 4.1
2017-Nov-10 15:30N 30°05' W 093°17'1 1.9
2017-Nov-10 15:00N 30°05' W 093°18'1 1.8
2017-Nov-10 14:30N 30°06' W 093°18'0 0.2
2017-Nov-10 14:00N 30°06' W 093°18'0 0.0
2017-Nov-10 13:31N 30°06' W 093°18'0 0.0
2017-Nov-10 13:00N 30°06' W 093°18'0 0.0
2017-Nov-10 12:30N 30°06' W 093°18'1 2.7
2017-Nov-10 12:00N 30°05' W 093°20'2 4.0
2017-Nov-10 11:31N 30°04' W 093°21'2 4.1
2017-Nov-10 11:01N 30°04' W 093°23'2 4.9
2017-Nov-10 10:31N 30°04' W 093°26'2 5.0
2017-Nov-10 10:00N 30°04' W 093°29'3 5.0
2017-Nov-10 09:30N 30°04' W 093°32'3 5.0
2017-Nov-10 09:00N 30°04' W 093°35'3 5.5
2017-Nov-10 08:30N 30°04' W 093°38'73 2.3
2017-Nov-09 01:19N 29°30' W 094°52'2 5.1
2017-Nov-09 00:59N 29°31' W 094°53'3 5.5
2017-Nov-09 00:30N 29°34' W 094°55'3 6.0
2017-Nov-09 00:00N 29°36' W 094°57'3 6.1
2017-Nov-08 23:30N 29°39' W 094°58'3 6.5
2017-Nov-08 22:59N 29°42' W 095°00'3 5.5
2017-Nov-08 22:30N 29°44' W 095°02'2 2.6
2017-Nov-08 21:52N 29°45' W 095°04'1 2.3
2017-Nov-08 21:14N 29°46' W 095°05'1 1.1
2017-Nov-08 20:45N 29°45' W 095°06'0 0.0
2017-Nov-08 20:30N 29°45' W 095°06'0 0.2
2017-Nov-08 18:06N 29°46' W 095°05'0 4.0
2017-Nov-08 18:00N 29°46' W 095°06'0 0.1
2017-Nov-08 17:00N 29°45' W 095°06'0 0.0
2017-Nov-08 15:00N 29°45' W 095°06'0 0.0
2017-Nov-08 14:08N 29°45' W 095°06'0 0.0
2017-Nov-08 13:57N 29°45' W 095°06'0 0.0
2017-Nov-08 13:28N 29°45' W 095°06'0 0.0
2017-Nov-08 12:58N 29°45' W 095°06'0 0.0
2017-Nov-08 12:26N 29°45' W 095°06'0 0.0
2017-Nov-08 11:57N 29°45' W 095°06'0 0.1
2017-Nov-08 11:22N 29°45' W 095°06'0 0.1
2017-Nov-08 11:00N 29°45' W 095°06'0 0.0
2017-Nov-08 10:28N 29°45' W 095°06'0 0.0
2017-Nov-08 10:00N 29°45' W 095°06'0 0.0
2017-Nov-08 09:30N 29°45' W 095°06'0 0.0
2017-Nov-08 08:55N 29°45' W 095°06'0 0.1
2017-Nov-08 08:28N 29°45' W 095°06'0 0.1
2017-Nov-08 08:00N 29°45' W 095°06'0 0.0
2017-Nov-08 07:30N 29°45' W 095°06'0 0.0
2017-Nov-08 07:00N 29°45' W 095°06'0 0.0
2017-Nov-08 06:29N 29°45' W 095°06'0 0.0
2017-Nov-08 06:00N 29°45' W 095°06'0 0.0
2017-Nov-08 05:31N 29°45' W 095°06'0 0.0
2017-Nov-08 04:59N 29°45' W 095°06'0 0.0
2017-Nov-08 04:30N 29°45' W 095°06'0 0.0
2017-Nov-08 03:59N 29°45' W 095°06'0 0.0
2017-Nov-08 03:30N 29°45' W 095°06'0 0.0
2017-Nov-08 03:00N 29°45' W 095°06'0 0.0
2017-Nov-08 02:31N 29°45' W 095°06'0 0.0
2017-Nov-08 01:54N 29°45' W 095°06'0 0.0
2017-Nov-08 01:04N 29°45' W 095°06'0 0.0
2017-Nov-08 00:50N 29°45' W 095°06'0 0.0
2017-Nov-08 00:31N 29°45' W 095°06'0 0.0
2017-Nov-07 23:59N 29°45' W 095°06'0 0.0
2017-Nov-07 20:08N 29°45' W 095°06'1 0.1
2017-Nov-07 16:19N 29°46' W 095°05'1 0.3
2017-Nov-07 14:28N 29°45' W 095°06'1 0.5
2017-Nov-07 12:57N 29°46' W 095°05'1 1.8
2017-Nov-07 12:23N 29°45' W 095°06'1 1.2
2017-Nov-07 11:41N 29°46' W 095°05'1 6.0
2017-Nov-07 11:29N 29°45' W 095°06'1 0.5
2017-Nov-07 09:05N 29°46' W 095°05'1 0.2
2017-Nov-07 06:54N 29°45' W 095°06'0 0.2
2017-Nov-07 06:23N 29°46' W 095°06'0 0.0
2017-Nov-07 05:05N 29°45' W 095°06'0 1.1
2017-Nov-07 04:57N 29°46' W 095°06'2 3.5
2017-Nov-07 04:24N 29°45' W 095°04'1 0.1
2017-Nov-06 21:46N 29°44' W 095°03'0 0.0
2017-Nov-06 20:04N 29°44' W 095°03'3 0.1
2017-Nov-05 23:25N 29°45' W 095°06'0 0.0
2017-Nov-05 22:55N 29°45' W 095°06'0 0.0
2017-Nov-05 22:28N 29°45' W 095°06'0 0.0
2017-Nov-05 21:58N 29°45' W 095°06'0 0.0
2017-Nov-05 21:22N 29°45' W 095°06'0 0.0
2017-Nov-05 20:55N 29°45' W 095°06'0 0.0
2017-Nov-05 20:22N 29°45' W 095°06'0 0.0
2017-Nov-05 19:58N 29°45' W 095°06'0 0.0
2017-Nov-05 19:25N 29°45' W 095°06'0 0.0
2017-Nov-05 18:55N 29°45' W 095°06'0 0.0
2017-Nov-05 18:28N 29°45' W 095°06'0 0.0
2017-Nov-05 17:58N 29°45' W 095°06'0 0.0
2017-Nov-05 17:28N 29°45' W 095°06'0 0.1
2017-Nov-05 16:40N 29°45' W 095°06'0 0.2
2017-Nov-05 16:20N 29°45' W 095°06'0 0.0
2017-Nov-05 15:56N 29°45' W 095°06'0 0.0
2017-Nov-05 15:23N 29°45' W 095°06'0 0.0
2017-Nov-05 14:56N 29°45' W 095°06'0 0.0
2017-Nov-05 14:29N 29°45' W 095°06'0 0.0
2017-Nov-05 11:53N 29°45' W 095°06'0 0.0
2017-Nov-05 11:20N 29°45' W 095°06'0 0.0
2017-Nov-05 10:56N 29°45' W 095°06'0 0.0
2017-Nov-05 10:30N 29°45' W 095°06'0 0.0
2017-Nov-05 10:00N 29°45' W 095°06'0 0.0
2017-Nov-05 09:30N 29°45' W 095°06'0 0.0
2017-Nov-05 09:00N 29°45' W 095°06'0 0.0
2017-Nov-05 08:23N 29°45' W 095°06'0 0.0
2017-Nov-05 08:00N 29°45' W 095°06'0 0.0
2017-Nov-05 07:29N 29°45' W 095°06'0 0.0
2017-Nov-05 07:00N 29°45' W 095°06'0 0.0
2017-Nov-05 06:30N 29°45' W 095°06'0 0.0
2017-Nov-05 05:59N 29°45' W 095°06'0 0.2
2017-Nov-05 05:26N 29°45' W 095°06'0 0.2
2017-Nov-05 04:59N 29°45' W 095°06'0 0.0
2017-Nov-05 04:30N 29°45' W 095°06'0 0.0
2017-Nov-05 04:00N 29°45' W 095°06'0 0.0
2017-Nov-05 03:28N 29°45' W 095°06'0 0.0
2017-Nov-05 03:00N 29°45' W 095°06'0 0.0
2017-Nov-05 02:30N 29°45' W 095°06'0 0.1
2017-Nov-05 01:27N 29°45' W 095°06'2 1.1
2017-Nov-04 23:35N 29°47' W 095°04'1 7.5
2017-Nov-04 23:25N 29°46' W 095°05'1 1.1
2017-Nov-04 22:45N 29°46' W 095°06'1 4.0
2017-Nov-04 22:30N 29°46' W 095°04'3 6.6
2017-Nov-04 22:00N 29°44' W 095°01'3 6.3
2017-Nov-04 21:30N 29°41' W 094°59'4 7.1
2017-Nov-04 21:00N 29°38' W 094°58'4 7.2
2017-Nov-04 20:30N 29°35' W 094°56'4 7.2
2017-Nov-04 20:00N 29°32' W 094°53'  
Track history (hours):
 
Tides and Currents Weather Stations Pressure Air Temp Water Temp Dewpoint Dewpoint Depression Visibility Wind Speed Wind Dir Waves Ship Positions

Capt. Reggie Leboeuf

Owner: Kirby Inland Marine LP, Houston, TX. More information available from US FCC via Universal Licensing System and Coast Guard Vessel Documentation Center.

Last reported at 2017-Nov-11 09:07 UTC. Time now 2017-Nov-22 16:40 UTC.
Position N 29°51' W 091°56'.
Warning: this ship's position is 11 days out of date.

Length 207 m; draft 3 m.

Type: . MMSI: 366995280.

Date/timePositionNaut miles runAvg speedWind from/ knotsBaromVisibWave heightAir tempDewpointWater temp
2017-Nov-11 09:07N 29°51' W 091°56'1 5.1
2017-Nov-11 08:55N 29°50' W 091°57'2 5.2
2017-Nov-11 08:29N 29°50' W 091°60'3 5.2
2017-Nov-11 07:59N 29°49' W 092°02'4 5.6
2017-Nov-11 07:19N 29°48' W 092°06'2 5.7
2017-Nov-11 06:59N 29°47' W 092°09'3 4.7
2017-Nov-11 06:25N 29°47' W 092°12'1 1.9
2017-Nov-11 05:55N 29°47' W 092°13'1 2.6
2017-Nov-11 05:27N 29°48' W 092°14'1 2.7
2017-Nov-11 05:00N 29°48' W 092°15'2 3.8
2017-Nov-11 04:29N 29°49' W 092°17'2 3.7
2017-Nov-11 03:59N 29°50' W 092°19'2 4.8
2017-Nov-11 03:29N 29°51' W 092°22'47 4.3
2017-Nov-10 16:30N 30°02' W 093°14'2 3.9
2017-Nov-10 16:00N 30°03' W 093°16'2 4.1
2017-Nov-10 15:30N 30°05' W 093°17'1 1.9
2017-Nov-10 15:00N 30°05' W 093°18'1 1.8
2017-Nov-10 14:30N 30°06' W 093°18'0 0.2
2017-Nov-10 14:00N 30°06' W 093°18'0 0.0
2017-Nov-10 13:31N 30°06' W 093°18'0 0.0
2017-Nov-10 13:00N 30°06' W 093°18'0 0.0
2017-Nov-10 12:30N 30°06' W 093°18'1 2.7
2017-Nov-10 12:00N 30°05' W 093°20'2 4.0
2017-Nov-10 11:31N 30°04' W 093°21'2 4.1
2017-Nov-10 11:01N 30°04' W 093°23'2 4.9
2017-Nov-10 10:31N 30°04' W 093°26'2 5.0
2017-Nov-10 10:00N 30°04' W 093°29'3 5.0
2017-Nov-10 09:30N 30°04' W 093°32'3 5.0
2017-Nov-10 09:00N 30°04' W 093°35'3 5.5
2017-Nov-10 08:30N 30°04' W 093°38'73 2.3
2017-Nov-09 01:19N 29°30' W 094°52'2 5.1
2017-Nov-09 00:59N 29°31' W 094°53'3 5.5
2017-Nov-09 00:30N 29°34' W 094°55'3 6.0
2017-Nov-09 00:00N 29°36' W 094°57'3 6.1
2017-Nov-08 23:30N 29°39' W 094°58'3 6.5
2017-Nov-08 22:59N 29°42' W 095°00'3 5.5
2017-Nov-08 22:30N 29°44' W 095°02'2 2.6
2017-Nov-08 21:52N 29°45' W 095°04'1 2.3
2017-Nov-08 21:14N 29°46' W 095°05'1 1.1
2017-Nov-08 20:45N 29°45' W 095°06'0 0.0
2017-Nov-08 20:30N 29°45' W 095°06'0 0.2
2017-Nov-08 18:06N 29°46' W 095°05'0 4.0
2017-Nov-08 18:00N 29°46' W 095°06'0 0.1
2017-Nov-08 17:00N 29°45' W 095°06'0 0.0
2017-Nov-08 15:00N 29°45' W 095°06'0 0.0
2017-Nov-08 14:08N 29°45' W 095°06'0 0.0
2017-Nov-08 13:57N 29°45' W 095°06'0 0.0
2017-Nov-08 13:28N 29°45' W 095°06'0 0.0
2017-Nov-08 12:58N 29°45' W 095°06'0 0.0
2017-Nov-08 12:26N 29°45' W 095°06'0 0.0
2017-Nov-08 11:57N 29°45' W 095°06'0 0.1
2017-Nov-08 11:22N 29°45' W 095°06'0 0.1
2017-Nov-08 11:00N 29°45' W 095°06'0 0.0
2017-Nov-08 10:28N 29°45' W 095°06'0 0.0
2017-Nov-08 10:00N 29°45' W 095°06'0 0.0
2017-Nov-08 09:30N 29°45' W 095°06'0 0.0
2017-Nov-08 08:55N 29°45' W 095°06'0 0.1
2017-Nov-08 08:28N 29°45' W 095°06'0 0.1
2017-Nov-08 08:00N 29°45' W 095°06'0 0.0
2017-Nov-08 07:30N 29°45' W 095°06'0 0.0
2017-Nov-08 07:00N 29°45' W 095°06'0 0.0
2017-Nov-08 06:29N 29°45' W 095°06'0 0.0
2017-Nov-08 06:00N 29°45' W 095°06'0 0.0
2017-Nov-08 05:31N 29°45' W 095°06'0 0.0
2017-Nov-08 04:59N 29°45' W 095°06'0 0.0
2017-Nov-08 04:30N 29°45' W 095°06'0 0.0
2017-Nov-08 03:59N 29°45' W 095°06'0 0.0
2017-Nov-08 03:30N 29°45' W 095°06'0 0.0
2017-Nov-08 03:00N 29°45' W 095°06'0 0.0
2017-Nov-08 02:31N 29°45' W 095°06'0 0.0
2017-Nov-08 01:54N 29°45' W 095°06'0 0.0
2017-Nov-08 01:04N 29°45' W 095°06'0 0.0
2017-Nov-08 00:50N 29°45' W 095°06'0 0.0
2017-Nov-08 00:31N 29°45' W 095°06'0 0.0
2017-Nov-07 23:59N 29°45' W 095°06'0 0.0
2017-Nov-07 20:08N 29°45' W 095°06'1 0.1
2017-Nov-07 16:19N 29°46' W 095°05'1 0.3
2017-Nov-07 14:28N 29°45' W 095°06'1 0.5
2017-Nov-07 12:57N 29°46' W 095°05'1 1.8
2017-Nov-07 12:23N 29°45' W 095°06'1 1.2
2017-Nov-07 11:41N 29°46' W 095°05'1 6.0
2017-Nov-07 11:29N 29°45' W 095°06'1 0.5
2017-Nov-07 09:05N 29°46' W 095°05'1 0.2
2017-Nov-07 06:54N 29°45' W 095°06'0 0.2
2017-Nov-07 06:23N 29°46' W 095°06'0 0.0
2017-Nov-07 05:05N 29°45' W 095°06'0 1.1
2017-Nov-07 04:57N 29°46' W 095°06'2 3.5
2017-Nov-07 04:24N 29°45' W 095°04'1 0.1
2017-Nov-06 21:46N 29°44' W 095°03'0 0.0
2017-Nov-06 20:04N 29°44' W 095°03'3 0.1
2017-Nov-05 23:25N 29°45' W 095°06'0 0.0
2017-Nov-05 22:55N 29°45' W 095°06'0 0.0
2017-Nov-05 22:28N 29°45' W 095°06'0 0.0
2017-Nov-05 21:58N 29°45' W 095°06'0 0.0
2017-Nov-05 21:22N 29°45' W 095°06'0 0.0
2017-Nov-05 20:55N 29°45' W 095°06'0 0.0
2017-Nov-05 20:22N 29°45' W 095°06'0 0.0
2017-Nov-05 19:58N 29°45' W 095°06'0 0.0
2017-Nov-05 19:25N 29°45' W 095°06'0 0.0
2017-Nov-05 18:55N 29°45' W 095°06'0 0.0
2017-Nov-05 18:28N 29°45' W 095°06'0 0.0
2017-Nov-05 17:58N 29°45' W 095°06'0 0.0
2017-Nov-05 17:28N 29°45' W 095°06'0 0.1
2017-Nov-05 16:40N 29°45' W 095°06'0 0.2
2017-Nov-05 16:20N 29°45' W 095°06'0 0.0
2017-Nov-05 15:56N 29°45' W 095°06'0 0.0
2017-Nov-05 15:23N 29°45' W 095°06'0 0.0
2017-Nov-05 14:56N 29°45' W 095°06'0 0.0
2017-Nov-05 14:29N 29°45' W 095°06'0 0.0
2017-Nov-05 11:53N 29°45' W 095°06'0 0.0
2017-Nov-05 11:20N 29°45' W 095°06'0 0.0
2017-Nov-05 10:56N 29°45' W 095°06'0 0.0
2017-Nov-05 10:30N 29°45' W 095°06'0 0.0
2017-Nov-05 10:00N 29°45' W 095°06'0 0.0
2017-Nov-05 09:30N 29°45' W 095°06'0 0.0
2017-Nov-05 09:00N 29°45' W 095°06'0 0.0
2017-Nov-05 08:23N 29°45' W 095°06'0 0.0
2017-Nov-05 08:00N 29°45' W 095°06'0 0.0
2017-Nov-05 07:29N 29°45' W 095°06'0 0.0
2017-Nov-05 07:00N 29°45' W 095°06'0 0.0
2017-Nov-05 06:30N 29°45' W 095°06'0 0.0
2017-Nov-05 05:59N 29°45' W 095°06'0 0.2
2017-Nov-05 05:26N 29°45' W 095°06'0 0.2
2017-Nov-05 04:59N 29°45' W 095°06'0 0.0
2017-Nov-05 04:30N 29°45' W 095°06'0 0.0
2017-Nov-05 04:00N 29°45' W 095°06'0 0.0
2017-Nov-05 03:28N 29°45' W 095°06'0 0.0
2017-Nov-05 03:00N 29°45' W 095°06'0 0.0
2017-Nov-05 02:30N 29°45' W 095°06'0 0.1
2017-Nov-05 01:27N 29°45' W 095°06'2 1.1
2017-Nov-04 23:35N 29°47' W 095°04'1 7.5
2017-Nov-04 23:25N 29°46' W 095°05'1 1.1
2017-Nov-04 22:45N 29°46' W 095°06'1 4.0
2017-Nov-04 22:30N 29°46' W 095°04'3 6.6
2017-Nov-04 22:00N 29°44' W 095°01'3 6.3
2017-Nov-04 21:30N 29°41' W 094°59'4 7.1
2017-Nov-04 21:00N 29°38' W 094°58'4 7.2
2017-Nov-04 20:30N 29°35' W 094°56'4 7.2
2017-Nov-04 20:00N 29°32' W 094°53'  

Dump ship's entire track history